createdAt,value
2022-07-28T00:02:25.509Z,3.70
2022-07-28T00:04:52.065Z,2.93
2022-07-28T00:07:18.677Z,5.03
2022-07-28T00:09:45.135Z,3.90
2022-07-28T00:12:11.673Z,2.07
2022-07-28T00:14:38.197Z,1.60
2022-07-28T00:17:04.646Z,3.07
2022-07-28T00:19:31.252Z,2.67
2022-07-28T00:21:57.719Z,4.97
2022-07-28T00:24:24.409Z,3.90
2022-07-28T00:26:50.885Z,4.23
2022-07-28T00:29:17.744Z,5.50
2022-07-28T00:31:44.321Z,2.73
2022-07-28T00:34:12.355Z,2.33
2022-07-28T00:36:39.251Z,2.50
2022-07-28T00:39:05.731Z,6.23
2022-07-28T00:41:32.694Z,8.17
2022-07-28T00:43:59.440Z,3.03
2022-07-28T00:46:25.966Z,4.37
2022-07-28T00:48:54.229Z,7.93
2022-07-28T00:51:24.557Z,3.00
2022-07-28T00:53:52.679Z,3.13
2022-07-28T00:56:19.983Z,3.33
2022-07-28T00:58:47.329Z,5.70
2022-07-28T01:01:17.660Z,2.63
2022-07-28T01:03:46.634Z,4.03
2022-07-28T01:06:32.498Z,6.30
2022-07-28T01:09:40.268Z,2.57
2022-07-28T01:12:25.716Z,4.47
2022-07-28T01:15:01.299Z,5.87
2022-07-28T01:17:49.897Z,5.33
2022-07-28T01:20:21.085Z,3.27
2022-07-28T01:23:26.460Z,9.17
2022-07-28T01:26:16.110Z,2.40
2022-07-28T01:28:57.864Z,3.43
2022-07-28T01:31:26.764Z,3.40
2022-07-28T01:33:59.367Z,2.77
2022-07-28T01:36:37.017Z,4.00
2022-07-28T01:39:04.004Z,6.60
2022-07-28T01:41:33.804Z,4.10
2022-07-28T01:44:08.534Z,3.63
2022-07-28T01:46:37.278Z,2.60
2022-07-28T01:49:05.151Z,5.60
2022-07-28T01:51:33.840Z,2.87
2022-07-28T01:54:02.793Z,3.03
2022-07-28T01:56:33.030Z,6.33
2022-07-28T01:59:06.009Z,2.57
2022-07-28T02:01:36.784Z,3.47
2022-07-28T02:04:06.659Z,3.73
2022-07-28T02:06:34.301Z,5.10
2022-07-28T02:09:03.665Z,3.53
2022-07-28T02:11:40.752Z,4.87
2022-07-28T02:14:16.428Z,3.17
2022-07-28T02:16:47.057Z,4.40
2022-07-28T02:19:14.554Z,3.40
2022-07-28T02:21:42.761Z,3.53
2022-07-28T02:24:12.310Z,4.20
2022-07-28T02:26:44.593Z,5.17
2022-07-28T02:29:33.355Z,5.20
2022-07-28T02:32:27.248Z,4.27
2022-07-28T02:34:58.943Z,4.00
2022-07-28T02:37:26.744Z,5.17
2022-07-28T02:40:00.388Z,3.83
2022-07-28T02:42:31.066Z,2.33
2022-07-28T02:45:00.755Z,3.90
2022-07-28T02:47:30.329Z,6.90
2022-07-28T02:50:01.025Z,4.37
2022-07-28T02:52:28.788Z,6.30
2022-07-28T02:54:57.547Z,4.93
2022-07-28T02:57:26.143Z,2.50
2022-07-28T02:59:54.023Z,4.80
2022-07-28T03:02:22.096Z,3.33
2022-07-28T03:05:02.200Z,3.33
2022-07-28T03:07:30.886Z,3.50
2022-07-28T03:09:59.096Z,4.40
2022-07-28T03:12:26.568Z,3.87
2022-07-28T03:14:53.245Z,4.73
2022-07-28T03:17:20.024Z,2.37
2022-07-28T03:19:46.594Z,6.07
2022-07-28T03:22:14.320Z,5.73
2022-07-28T03:24:44.564Z,3.80
2022-07-28T03:27:28.098Z,7.80
2022-07-28T03:30:05.044Z,2.50
2022-07-28T03:32:35.154Z,6.33
2022-07-28T03:35:02.458Z,5.13
2022-07-28T03:37:35.758Z,7.37
2022-07-28T03:40:04.161Z,2.80
2022-07-28T03:42:30.829Z,4.03
2022-07-28T03:44:57.393Z,3.27
2022-07-28T03:47:24.974Z,7.10
2022-07-28T03:49:51.645Z,3.93
2022-07-28T03:52:19.115Z,5.03
2022-07-28T03:54:45.687Z,6.83
2022-07-28T03:57:12.137Z,5.00
2022-07-28T03:59:38.764Z,8.20
2022-07-28T04:02:06.560Z,4.30
2022-07-28T04:04:33.147Z,3.23
2022-07-28T04:06:59.681Z,3.63
2022-07-28T04:09:26.269Z,2.67
2022-07-28T04:11:52.725Z,6.70
2022-07-28T04:14:19.523Z,4.37
2022-07-28T04:16:46.613Z,5.57
2022-07-28T04:19:13.129Z,5.33
2022-07-28T04:21:39.580Z,5.47
2022-07-28T04:24:06.948Z,9.97
2022-07-28T04:26:33.486Z,4.07
2022-07-28T04:28:59.971Z,4.20
2022-07-28T04:31:30.276Z,7.37
2022-07-28T04:33:56.909Z,6.20
2022-07-28T04:36:23.370Z,3.97
2022-07-28T04:38:49.899Z,7.87
2022-07-28T04:41:16.320Z,8.03
2022-07-28T04:43:43.310Z,7.00
2022-07-28T04:46:14.583Z,5.97
2022-07-28T04:48:41.611Z,4.13
2022-07-28T04:51:08.247Z,5.90
2022-07-28T04:53:35.133Z,3.87
2022-07-28T04:56:01.603Z,5.07
2022-07-28T04:58:29.433Z,5.67
2022-07-28T05:00:57.574Z,5.37
2022-07-28T05:03:24.176Z,6.23
2022-07-28T05:05:53.429Z,8.50
2022-07-28T05:08:21.989Z,6.87
2022-07-28T05:10:53.041Z,5.47
2022-07-28T05:13:19.523Z,6.10
2022-07-28T05:15:46.281Z,6.17
2022-07-28T05:18:12.773Z,5.93
2022-07-28T05:20:39.195Z,6.77
2022-07-28T05:23:05.702Z,12.03
2022-07-28T05:25:32.239Z,4.93
2022-07-28T05:27:58.794Z,7.47
2022-07-28T05:30:25.465Z,5.07
2022-07-28T05:32:53.822Z,5.60
2022-07-28T05:35:20.555Z,8.13
2022-07-28T05:37:47.260Z,4.60
2022-07-28T05:40:15.339Z,4.90
2022-07-28T05:42:43.919Z,5.80
2022-07-28T05:45:15.767Z,5.43
2022-07-28T05:47:48.762Z,6.20
2022-07-28T05:50:16.904Z,6.77
2022-07-28T05:52:44.171Z,4.33
2022-07-28T05:55:11.046Z,6.93
2022-07-28T05:57:38.416Z,4.73
2022-07-28T06:00:14.282Z,14.43
2022-07-28T06:02:41.835Z,5.77
2022-07-28T06:05:08.976Z,8.93
2022-07-28T06:07:42.733Z,6.17
2022-07-28T06:10:15.638Z,6.53
2022-07-28T06:12:44.294Z,6.07
2022-07-28T06:15:15.146Z,6.23
2022-07-28T06:17:42.627Z,7.63
2022-07-28T06:20:10.789Z,8.70
2022-07-28T06:22:45.316Z,7.17
2022-07-28T06:25:16.131Z,8.03
2022-07-28T06:27:42.844Z,5.03
2022-07-28T06:30:10.143Z,5.97
2022-07-28T06:32:36.713Z,5.73
2022-07-28T06:35:04.035Z,7.20
2022-07-28T06:37:30.519Z,5.33
2022-07-28T06:39:57.085Z,6.97
2022-07-28T06:42:23.962Z,8.73
2022-07-28T06:44:59.051Z,7.10
2022-07-28T06:47:26.654Z,6.00
2022-07-28T06:49:53.076Z,8.77
2022-07-28T06:52:20.778Z,11.77
2022-07-28T06:54:50.630Z,7.23
2022-07-28T06:57:22.482Z,10.07
2022-07-28T06:59:55.062Z,9.90
2022-07-28T07:02:26.402Z,5.07
2022-07-28T07:04:54.927Z,7.07
2022-07-28T07:07:22.673Z,14.70
2022-07-28T07:09:49.242Z,10.77
2022-07-28T07:12:15.751Z,5.10
2022-07-28T07:14:42.490Z,7.20
2022-07-28T07:17:08.941Z,6.30
2022-07-28T07:19:35.412Z,6.30
2022-07-28T07:22:02.046Z,5.50
2022-07-28T07:24:28.571Z,4.83
2022-07-28T07:26:55.622Z,8.50
2022-07-28T07:29:22.894Z,7.23
2022-07-28T07:31:52.949Z,10.83
2022-07-28T07:34:20.095Z,9.27
2022-07-28T07:36:46.768Z,5.07
2022-07-28T07:39:13.779Z,12.90
2022-07-28T07:41:40.277Z,19.53
2022-07-28T07:44:06.807Z,23.90
2022-07-28T07:46:33.342Z,10.77
2022-07-28T07:48:59.896Z,9.43
2022-07-28T07:51:26.381Z,8.10
2022-07-28T07:53:52.864Z,12.37
2022-07-28T07:56:19.342Z,9.97
2022-07-28T07:58:45.804Z,11.53
2022-07-28T08:01:13.060Z,7.23
2022-07-28T08:03:39.538Z,9.60
2022-07-28T08:06:05.999Z,5.07
2022-07-28T08:08:36.794Z,8.53
2022-07-28T08:11:07.272Z,7.67
2022-07-28T08:13:34.515Z,6.70
2022-07-28T08:16:01.308Z,5.80
2022-07-28T08:18:27.795Z,7.23
2022-07-28T08:20:54.238Z,7.17
2022-07-28T08:23:26.054Z,4.47
2022-07-28T08:25:52.939Z,7.57
2022-07-28T08:28:19.359Z,5.63
2022-07-28T08:30:46.075Z,10.00
2022-07-28T08:33:12.538Z,7.03
2022-07-28T08:35:40.021Z,5.63
2022-07-28T08:38:06.996Z,10.40
2022-07-28T08:40:36.324Z,8.70
2022-07-28T08:43:12.319Z,5.90
2022-07-28T08:45:40.597Z,8.27
2022-07-28T08:48:11.450Z,7.07
2022-07-28T08:50:39.427Z,7.97
2022-07-28T08:53:07.856Z,9.10
2022-07-28T08:55:35.725Z,8.27
2022-07-28T08:58:03.251Z,5.67
2022-07-28T09:00:30.197Z,9.93
2022-07-28T09:02:57.228Z,6.33
2022-07-28T09:05:24.802Z,3.87
2022-07-28T09:07:55.417Z,6.07
2022-07-28T09:10:22.584Z,3.80
2022-07-28T09:12:49.407Z,8.13
2022-07-28T09:15:15.953Z,3.40
2022-07-28T09:17:42.701Z,4.50
2022-07-28T09:20:11.703Z,6.93
2022-07-28T09:23:02.211Z,2.33
2022-07-28T09:25:29.694Z,4.63
2022-07-28T09:27:59.242Z,5.77
2022-07-28T09:30:33.813Z,4.03
2022-07-28T09:33:40.958Z,3.50
2022-07-28T09:36:02.313Z,3.97
2022-07-28T09:38:40.507Z,4.63
2022-07-28T09:41:07.429Z,7.63
2022-07-28T09:43:39.249Z,4.30
2022-07-28T09:46:08.497Z,6.77
2022-07-28T09:48:43.280Z,4.43
2022-07-28T09:51:14.785Z,5.50
2022-07-28T09:53:41.965Z,4.60
2022-07-28T09:56:09.544Z,3.87
2022-07-28T09:58:36.829Z,10.83
2022-07-28T10:01:09.871Z,4.40
2022-07-28T10:03:40.735Z,6.33
2022-07-28T10:06:08.609Z,5.93
2022-07-28T10:08:49.074Z,8.37
2022-07-28T10:11:30.233Z,4.67
2022-07-28T10:13:58.644Z,6.20
2022-07-28T10:16:28.462Z,4.83
2022-07-28T10:18:56.654Z,3.80
2022-07-28T10:21:25.082Z,4.70
2022-07-28T10:23:57.457Z,8.90
2022-07-28T10:26:44.775Z,5.87
2022-07-28T10:29:17.597Z,4.10
2022-07-28T10:32:00.471Z,5.50
2022-07-28T10:34:43.859Z,5.33
2022-07-28T10:37:17.381Z,4.10
2022-07-28T10:39:49.483Z,8.63
2022-07-28T10:42:16.475Z,3.90
2022-07-28T10:44:45.212Z,6.77
2022-07-28T10:47:18.098Z,3.50
2022-07-28T10:49:48.642Z,4.97
2022-07-28T10:52:37.703Z,7.00
2022-07-28T10:55:20.455Z,4.30
2022-07-28T10:58:13.463Z,5.27
2022-07-28T11:00:56.659Z,7.37
2022-07-28T11:03:47.072Z,7.50
2022-07-28T11:06:36.092Z,3.90
2022-07-28T11:09:17.800Z,5.27
2022-07-28T11:11:47.154Z,5.17
2022-07-28T11:14:39.400Z,5.07
2022-07-28T11:17:10.341Z,4.73
2022-07-28T11:20:06.890Z,5.63
2022-07-28T11:22:32.140Z,6.40
2022-07-28T11:25:00.872Z,3.93
2022-07-28T11:27:50.562Z,3.60
2022-07-28T11:30:27.753Z,5.87
2022-07-28T11:32:54.289Z,5.80
2022-07-28T11:35:21.441Z,4.90
2022-07-28T11:38:03.434Z,3.07
2022-07-28T11:40:30.952Z,3.07
2022-07-28T11:43:35.464Z,4.40
2022-07-28T11:46:02.550Z,3.87
2022-07-28T11:48:30.516Z,4.63
2022-07-28T11:51:02.770Z,7.67
2022-07-28T11:53:47.438Z,5.17
2022-07-28T11:56:26.318Z,5.57
2022-07-28T11:58:57.367Z,3.90
2022-07-28T12:01:24.110Z,6.50
2022-07-28T12:03:56.286Z,6.20
2022-07-28T12:06:35.509Z,3.17
2022-07-28T12:09:05.458Z,5.70
2022-07-28T12:11:43.943Z,3.43
2022-07-28T12:14:14.049Z,2.10
2022-07-28T12:16:43.326Z,5.30
2022-07-28T12:19:11.704Z,3.37
2022-07-28T12:21:46.336Z,3.87
2022-07-28T12:24:29.646Z,2.10
2022-07-28T12:26:57.594Z,4.30
2022-07-28T12:29:25.092Z,5.63
2022-07-28T12:32:02.052Z,3.80
2022-07-28T12:34:30.337Z,3.30
2022-07-28T12:36:58.873Z,2.77
2022-07-28T12:39:26.376Z,3.70
2022-07-28T12:42:04.665Z,3.63
2022-07-28T12:44:42.751Z,3.57
2022-07-28T12:47:12.160Z,4.40
2022-07-28T12:49:40.666Z,3.97
2022-07-28T12:52:22.704Z,8.63
2022-07-28T12:54:55.477Z,4.57
2022-07-28T12:57:50.959Z,5.53
2022-07-28T13:00:49.133Z,4.27
2022-07-28T13:03:27.867Z,3.90
2022-07-28T13:06:04.511Z,4.57
2022-07-28T13:08:38.786Z,4.17
2022-07-28T13:11:42.023Z,4.03
2022-07-28T13:13:59.975Z,3.73
2022-07-28T13:16:28.240Z,2.57
2022-07-28T13:19:04.463Z,7.27
2022-07-28T13:21:58.548Z,4.77
2022-07-28T13:24:28.796Z,4.10
2022-07-28T13:26:56.564Z,2.80
2022-07-28T13:29:23.747Z,44.07
2022-07-28T13:31:50.593Z,134.27
2022-07-28T13:34:17.657Z,111.47
2022-07-28T13:36:44.390Z,131.00
2022-07-28T13:39:10.999Z,140.23
2022-07-28T13:41:57.076Z,27.90
2022-07-28T13:44:24.838Z,40.80
2022-07-28T13:46:51.599Z,29.57
2022-07-28T13:49:21.529Z,28.67
2022-07-28T13:51:48.741Z,8.63
2022-07-28T13:54:17.968Z,12.40
2022-07-28T13:56:45.390Z,9.40
2022-07-28T13:59:13.637Z,8.40
2022-07-28T14:01:41.413Z,4.90
2022-07-28T14:04:14.601Z,35.17
2022-07-28T14:06:45.054Z,27.60
2022-07-28T14:09:12.091Z,9.10
2022-07-28T14:11:41.386Z,3.97
2022-07-28T14:14:17.547Z,8.07
2022-07-28T14:16:47.820Z,3.73
2022-07-28T14:19:16.579Z,8.27
2022-07-28T14:21:50.277Z,5.67
2022-07-28T14:24:17.531Z,6.73
2022-07-28T14:26:44.401Z,7.37
2022-07-28T14:29:11.470Z,7.73
2022-07-28T14:31:38.416Z,8.70
2022-07-28T14:34:05.063Z,6.77
2022-07-28T14:36:31.563Z,6.93
2022-07-28T14:38:58.016Z,6.17
2022-07-28T14:41:25.799Z,5.93
2022-07-28T14:43:52.892Z,3.60
2022-07-28T14:46:21.809Z,6.70
2022-07-28T14:48:48.864Z,5.23
2022-07-28T14:51:15.904Z,4.93
2022-07-28T14:53:49.832Z,4.10
2022-07-28T14:56:18.524Z,4.97
2022-07-28T14:58:45.055Z,4.10
2022-07-28T15:01:11.659Z,8.50
2022-07-28T15:03:43.283Z,4.60
2022-07-28T15:06:10.265Z,3.23
2022-07-28T15:08:36.985Z,6.00
2022-07-28T15:11:03.477Z,3.67
2022-07-28T15:13:30.438Z,5.20
2022-07-28T15:15:59.720Z,5.53
2022-07-28T15:18:26.344Z,4.10
2022-07-28T15:20:54.602Z,2.67
2022-07-28T15:23:21.728Z,5.37
2022-07-28T15:25:48.238Z,9.13
2022-07-28T15:28:17.867Z,6.47
2022-07-28T15:30:51.329Z,6.53
2022-07-28T15:33:19.684Z,3.10
2022-07-28T15:35:58.039Z,6.47
2022-07-28T15:38:26.268Z,2.90
2022-07-28T15:40:52.929Z,5.80
2022-07-28T15:43:19.889Z,3.20
2022-07-28T15:45:50.575Z,3.00
2022-07-28T15:48:17.393Z,3.03
2022-07-28T15:50:48.557Z,4.03
2022-07-28T15:53:18.575Z,5.83
2022-07-28T15:55:50.499Z,3.33
2022-07-28T15:58:17.939Z,7.17
2022-07-28T16:00:45.908Z,6.83
2022-07-28T16:03:12.836Z,4.87
2022-07-28T16:05:39.727Z,4.70
2022-07-28T16:08:06.468Z,6.77
2022-07-28T16:10:33.133Z,4.00
2022-07-28T16:12:59.641Z,7.03
2022-07-28T16:15:26.960Z,7.10
2022-07-28T16:17:54.540Z,4.63
2022-07-28T16:20:21.823Z,4.13
2022-07-28T16:22:48.509Z,4.73
2022-07-28T16:25:20.686Z,4.03
2022-07-28T16:27:48.327Z,4.03
2022-07-28T16:30:16.976Z,3.27
2022-07-28T16:32:43.568Z,5.00
2022-07-28T16:35:10.541Z,4.77
2022-07-28T16:37:37.073Z,6.10
2022-07-28T16:40:04.325Z,5.73
2022-07-28T16:42:31.619Z,3.63
2022-07-28T16:44:58.234Z,5.97
2022-07-28T16:47:24.935Z,5.07
2022-07-28T16:49:51.555Z,4.80
2022-07-28T16:52:18.185Z,4.90
2022-07-28T16:54:45.658Z,2.83
2022-07-28T16:57:14.266Z,4.87
2022-07-28T16:59:47.849Z,7.93
2022-07-28T17:02:15.297Z,5.70
2022-07-28T17:04:42.066Z,4.13
2022-07-28T17:07:08.698Z,7.13
2022-07-28T17:09:35.113Z,6.17
2022-07-28T17:12:01.593Z,6.40
2022-07-28T17:14:28.086Z,7.70
2022-07-28T17:16:54.564Z,4.90
2022-07-28T17:19:22.083Z,7.27
2022-07-28T17:21:48.626Z,4.07
2022-07-28T17:24:15.781Z,4.70
2022-07-28T17:27:35.230Z,7.63
2022-07-28T17:29:29.531Z,4.03
2022-07-28T17:31:56.041Z,4.33
2022-07-28T17:34:22.685Z,4.83
2022-07-28T17:36:50.348Z,5.90
2022-07-28T17:39:16.828Z,5.50
2022-07-28T17:41:43.413Z,5.97
2022-07-28T17:44:09.975Z,7.27
2022-07-28T17:46:36.704Z,5.53
2022-07-28T17:49:05.554Z,6.13
2022-07-28T17:51:32.206Z,5.63
2022-07-28T17:53:58.960Z,5.90
2022-07-28T17:56:26.092Z,5.03
2022-07-28T17:58:53.090Z,4.47
2022-07-28T18:01:19.652Z,5.17
2022-07-28T18:03:58.692Z,5.00
2022-07-28T18:06:37.354Z,3.40
2022-07-28T18:09:08.197Z,4.07
2022-07-28T18:11:55.733Z,5.67
2022-07-28T18:14:23.969Z,4.27
2022-07-28T18:16:50.422Z,3.97
2022-07-28T18:19:17.114Z,3.20
2022-07-28T18:21:43.806Z,4.93
2022-07-28T18:24:10.308Z,6.40
2022-07-28T18:26:36.783Z,3.37
2022-07-28T18:29:03.322Z,2.87
2022-07-28T18:31:30.260Z,3.87
2022-07-28T18:33:56.885Z,7.07
2022-07-28T18:36:23.374Z,4.33
2022-07-28T18:38:49.843Z,4.77
2022-07-28T18:41:17.761Z,3.57
2022-07-28T18:43:44.236Z,8.63
2022-07-28T18:46:11.206Z,3.50
2022-07-28T18:48:38.062Z,8.50
2022-07-28T18:51:05.548Z,2.73
2022-07-28T18:53:32.119Z,4.83
2022-07-28T18:55:58.547Z,7.03
2022-07-28T18:58:24.979Z,5.03
2022-07-28T19:00:51.820Z,5.20
2022-07-28T19:03:18.376Z,3.37
2022-07-28T19:05:46.416Z,4.73
2022-07-28T19:08:13.320Z,4.73
2022-07-28T19:10:40.177Z,2.63
2022-07-28T19:13:09.026Z,3.73
2022-07-28T19:15:39.023Z,3.00
2022-07-28T19:18:10.516Z,2.10
2022-07-28T19:20:39.475Z,4.10
2022-07-28T19:23:06.043Z,5.90
2022-07-28T19:25:35.512Z,4.27
2022-07-28T19:28:02.036Z,3.30
2022-07-28T19:30:30.232Z,5.70
2022-07-28T19:32:56.699Z,4.60
2022-07-28T19:35:23.370Z,5.37
2022-07-28T19:37:50.798Z,5.27
2022-07-28T19:40:17.370Z,5.10
2022-07-28T19:42:43.850Z,4.10
2022-07-28T19:45:10.562Z,6.97
2022-07-28T19:47:37.265Z,4.07
2022-07-28T19:50:05.226Z,4.27
2022-07-28T19:52:31.856Z,4.23
2022-07-28T19:54:58.325Z,4.50
2022-07-28T19:57:25.342Z,5.73
2022-07-28T19:59:51.801Z,3.47
2022-07-28T20:02:18.313Z,5.60
2022-07-28T20:04:44.813Z,7.47
2022-07-28T20:07:11.276Z,8.57
2022-07-28T20:09:37.742Z,3.80
2022-07-28T20:12:04.578Z,7.13
2022-07-28T20:14:34.854Z,5.87
2022-07-28T20:17:01.522Z,5.27
2022-07-28T20:19:28.078Z,3.90
2022-07-28T20:21:54.635Z,5.77
2022-07-28T20:24:21.218Z,3.73
2022-07-28T20:26:47.648Z,6.47
2022-07-28T20:29:14.556Z,4.83
2022-07-28T20:31:41.012Z,6.73
2022-07-28T20:34:07.682Z,4.40
2022-07-28T20:36:34.635Z,6.93
2022-07-28T20:39:01.286Z,4.77
2022-07-28T20:41:27.741Z,4.20
2022-07-28T20:46:41.273Z,5.70
2022-07-28T20:49:07.999Z,8.83
2022-07-28T20:51:34.563Z,6.60
2022-07-28T20:54:01.026Z,4.43
2022-07-28T20:56:27.454Z,2.93
2022-07-28T20:58:54.129Z,3.23
2022-07-28T21:01:23.332Z,6.03
2022-07-28T21:03:50.009Z,5.53
2022-07-28T21:06:16.484Z,3.43
2022-07-28T21:08:44.857Z,5.33
2022-07-28T21:11:11.942Z,6.33
2022-07-28T21:13:38.399Z,6.53
2022-07-28T21:16:05.079Z,6.17
2022-07-28T21:18:31.596Z,5.07
2022-07-28T21:20:59.577Z,5.53
2022-07-28T21:23:26.219Z,4.00
2022-07-28T21:25:53.311Z,6.80
2022-07-28T21:28:38.440Z,3.73
2022-07-28T21:31:04.984Z,4.43
2022-07-28T21:33:31.632Z,4.53
2022-07-28T21:35:58.344Z,4.43
2022-07-28T21:38:24.837Z,2.67
2022-07-28T21:40:52.450Z,3.33
2022-07-28T21:43:18.985Z,6.77
2022-07-28T21:45:46.636Z,5.00
2022-07-28T21:48:13.209Z,2.97
2022-07-28T21:50:39.653Z,4.00
2022-07-28T21:53:06.159Z,7.97
2022-07-28T21:55:33.202Z,7.27
2022-07-28T21:57:59.750Z,6.87
2022-07-28T22:00:26.344Z,2.60
2022-07-28T22:02:53.396Z,6.10
2022-07-28T22:05:20.296Z,5.50
2022-07-28T22:07:48.213Z,3.87
2022-07-28T22:10:15.193Z,5.27
2022-07-28T22:12:42.022Z,5.40
2022-07-28T22:15:08.856Z,4.33
2022-07-28T22:17:35.305Z,4.90
2022-07-28T22:20:02.422Z,4.93
2022-07-28T22:22:29.376Z,5.37
2022-07-28T22:24:55.957Z,3.40
2022-07-28T22:27:22.979Z,4.10
2022-07-28T22:29:50.026Z,2.67
2022-07-28T22:32:26.682Z,6.77
2022-07-28T22:34:55.341Z,7.10
2022-07-28T22:37:22.118Z,5.90
2022-07-28T22:39:48.614Z,6.63
2022-07-28T22:42:15.169Z,5.73
2022-07-28T22:44:42.026Z,4.80
2022-07-28T22:47:08.559Z,7.97
2022-07-28T22:49:35.121Z,6.50
2022-07-28T22:52:02.145Z,5.53
2022-07-28T22:54:28.584Z,7.57
2022-07-28T22:56:55.018Z,4.07
2022-07-28T22:59:21.818Z,6.33
2022-07-28T23:01:51.928Z,8.07
2022-07-28T23:04:18.764Z,5.10
2022-07-28T23:06:45.697Z,7.27
2022-07-28T23:09:13.136Z,5.83
2022-07-28T23:11:39.706Z,3.30
2022-07-28T23:14:06.244Z,3.47
2022-07-28T23:16:32.791Z,6.30
2022-07-28T23:19:00.355Z,6.07
2022-07-28T23:21:26.865Z,4.03
2022-07-28T23:23:53.451Z,5.37
2022-07-28T23:26:20.272Z,7.40
2022-07-28T23:28:46.779Z,3.83
2022-07-28T23:31:13.343Z,9.53
2022-07-28T23:33:54.530Z,9.47
2022-07-28T23:36:26.521Z,3.53
2022-07-28T23:38:56.526Z,7.03
2022-07-28T23:41:23.313Z,5.00
2022-07-28T23:43:49.945Z,4.97
2022-07-28T23:46:16.481Z,6.67
2022-07-28T23:48:43.522Z,5.27
2022-07-28T23:51:10.459Z,4.70
2022-07-28T23:53:38.059Z,5.90
2022-07-28T23:56:05.277Z,5.80
2022-07-28T23:58:31.872Z,6.23
